createdAt,value
2018-04-25T00:08:33.602Z,14.49
2018-04-25T00:18:33.659Z,14.44
2018-04-25T00:28:33.639Z,14.46
2018-04-25T00:38:34.441Z,14.35
2018-04-25T00:48:33.656Z,14.44
2018-04-25T00:58:33.729Z,14.49
2018-04-25T01:08:33.767Z,14.46
2018-04-25T01:18:33.707Z,14.52
2018-04-25T01:28:33.752Z,14.53
2018-04-25T01:38:33.755Z,14.49
2018-04-25T01:48:33.741Z,14.53
2018-04-25T01:58:33.751Z,14.56
2018-04-25T02:08:34.100Z,14.54
2018-04-25T02:18:33.815Z,14.67
2018-04-25T02:28:33.864Z,14.67
2018-04-25T02:38:33.796Z,14.9
2018-04-25T02:48:33.762Z,14.93
2018-04-25T02:58:33.822Z,15.15
2018-04-25T03:08:33.881Z,15.36
2018-04-25T03:18:33.874Z,15.45
2018-04-25T03:28:33.825Z,15.33
2018-04-25T03:38:33.824Z,15.27
2018-04-25T03:48:33.887Z,15.15
2018-04-25T03:58:33.918Z,15.27
2018-04-25T04:08:33.965Z,15.26
2018-04-25T04:18:33.849Z,15.31
2018-04-25T04:28:33.925Z,15.26
2018-04-25T04:38:33.890Z,15.28
2018-04-25T04:48:33.890Z,15.36
2018-04-25T04:58:33.973Z,15.2
2018-04-25T05:08:33.975Z,15.26
2018-04-25T05:18:33.950Z,15.26
2018-04-25T05:28:33.982Z,15.21
2018-04-25T05:38:33.990Z,14.19
2018-04-25T05:48:34.005Z,13.33
2018-04-25T05:58:34.041Z,13.15
2018-04-25T06:08:34.025Z,13
2018-04-25T06:18:33.998Z,13.25
2018-04-25T06:28:33.981Z,13.69
2018-04-25T06:38:34.031Z,14.27
2018-04-25T06:48:34.154Z,14.62
2018-04-25T06:58:34.126Z,15.05
2018-04-25T07:08:34.081Z,15.3
2018-04-25T07:18:34.230Z,15.3
2018-04-25T07:28:34.069Z,15.36
2018-04-25T07:38:34.133Z,15.08
2018-04-25T07:48:34.048Z,14.07
2018-04-25T07:58:34.047Z,13.79
2018-04-25T08:08:34.217Z,17.11
2018-04-25T08:18:34.110Z,18.22
2018-04-25T08:28:34.133Z,17.85
2018-04-25T08:38:34.095Z,17.89
2018-04-25T08:48:34.163Z,16.7
2018-04-25T08:58:34.118Z,15.85
2018-04-25T09:08:34.137Z,16.41
2018-04-25T09:18:34.098Z,16.52
2018-04-25T09:28:34.111Z,16.99
2018-04-25T09:38:34.117Z,16.25
2018-04-25T09:48:34.124Z,15.94
2018-04-25T09:58:34.167Z,16.06
2018-04-25T10:08:34.102Z,15.82
2018-04-25T10:18:34.168Z,15.66
2018-04-25T10:28:34.135Z,15.86
2018-04-25T10:38:34.095Z,15.45
2018-04-25T10:48:34.100Z,15.74
2018-04-25T10:58:34.198Z,16.8
2018-04-25T11:08:34.884Z,17.14
2018-04-25T11:18:34.108Z,16.52
2018-04-25T11:28:34.192Z,15.3
2018-04-25T11:38:34.138Z,14.47
2018-04-25T11:48:34.162Z,14.94
2018-04-25T11:58:34.157Z,15.03
2018-04-25T12:08:34.167Z,14.56
2018-04-25T12:18:34.242Z,14.61
2018-04-25T12:28:34.202Z,15.15
2018-04-25T12:38:34.250Z,15.12
2018-04-25T12:48:34.193Z,15.27
2018-04-25T12:58:34.109Z,15.6
2018-04-25T13:08:34.141Z,15.59
2018-04-25T13:18:34.133Z,16.07
2018-04-25T13:28:34.175Z,16.33
2018-04-25T13:38:34.198Z,16.25
2018-04-25T13:48:34.179Z,16.34
2018-04-25T13:58:34.238Z,15.86
2018-04-25T14:08:34.135Z,15.96
2018-04-25T14:18:34.193Z,15.36
2018-04-25T14:28:34.129Z,15.2
2018-04-25T14:38:34.312Z,15.56
2018-04-25T14:48:34.223Z,15.56
2018-04-25T14:59:10.548Z,15.43
2018-04-25T15:08:34.789Z,15.09
2018-04-25T15:18:34.151Z,15.31
2018-04-25T15:28:34.240Z,15.13
2018-04-25T15:38:34.156Z,15.33
2018-04-25T15:48:34.109Z,15.17
2018-04-25T15:58:34.200Z,15.39
2018-04-25T16:08:34.140Z,15.28
2018-04-25T16:18:34.259Z,15.31
2018-04-25T16:28:34.254Z,14.98
2018-04-25T16:38:34.242Z,15.05
2018-04-25T16:48:34.121Z,15.21
2018-04-25T16:58:34.161Z,15.09
2018-04-25T17:08:34.223Z,14.9
2018-04-25T17:18:34.232Z,14.98
2018-04-25T17:28:34.140Z,14.8
2018-04-25T17:38:34.111Z,14.61
2018-04-25T17:48:34.121Z,14.38
2018-04-25T17:58:34.350Z,14.25
2018-04-25T18:08:34.233Z,13.84
2018-04-25T18:18:34.174Z,13.41
2018-04-25T18:28:34.425Z,13.24
2018-04-25T18:38:34.301Z,13.04
2018-04-25T18:48:34.140Z,12.63
2018-04-25T18:58:34.214Z,12.21
2018-04-25T19:08:34.116Z,12.04
2018-04-25T19:18:34.189Z,11.53
2018-04-25T19:28:44.220Z,11.31
2018-04-25T19:38:34.245Z,11.27
2018-04-25T19:48:34.304Z,11.35
2018-04-25T19:58:34.255Z,11.19
2018-04-25T20:08:34.250Z,10.92
2018-04-25T20:18:34.263Z,11.09
2018-04-25T20:28:34.349Z,11.35
2018-04-25T20:38:34.575Z,11.21
2018-04-25T20:48:34.464Z,10.59
2018-04-25T20:58:34.450Z,10.46
2018-04-25T21:09:07.226Z,10.47
2018-04-25T21:18:59.868Z,10.77
2018-04-25T21:28:39.120Z,10.98
2018-04-25T21:38:41.318Z,11.25
2018-04-25T21:48:41.126Z,11.35
2018-04-25T21:58:41.361Z,11.32
2018-04-25T22:08:39.485Z,11.31
2018-04-25T22:18:40.425Z,11.32
2018-04-25T22:28:40.996Z,11.32
2018-04-25T22:38:39.726Z,10.78
2018-04-25T22:48:39.604Z,10.46
2018-04-25T22:58:41.201Z,10.17
2018-04-25T23:08:40.415Z,9.99
2018-04-25T23:18:38.700Z,9.67
2018-04-25T23:28:40.065Z,9.42
2018-04-25T23:38:39.683Z,9.27
2018-04-25T23:48:42.928Z,9.42
2018-04-25T23:58:40.100Z,9.75
